sensor_id;sensor_type;location;lat;lon;timestamp;pressure;altitude;pressure_sealevel;temperature;humidity
78990;BME280;68390;52.130;21.218;2024-03-22T00:01:48;100613.75;;;6.73;100.00
78990;BME280;68390;52.130;21.218;2024-03-22T00:04:14;100611.75;;;6.75;100.00
78990;BME280;68390;52.130;21.218;2024-03-22T00:06:41;100610.88;;;6.74;100.00
78990;BME280;68390;52.130;21.218;2024-03-22T00:09:07;100612.59;;;6.75;100.00
78990;BME280;68390;52.130;21.218;2024-03-22T00:11:32;100603.56;;;6.75;100.00
78990;BME280;68390;52.130;21.218;2024-03-22T00:13:58;100605.84;;;6.79;100.00
78990;BME280;68390;52.130;21.218;2024-03-22T00:16:23;100601.53;;;6.77;100.00
78990;BME280;68390;52.130;21.218;2024-03-22T00:18:49;100606.72;;;6.80;100.00
78990;BME280;68390;52.130;21.218;2024-03-22T00:21:14;100599.81;;;6.76;100.00
78990;BME280;68390;52.130;21.218;2024-03-22T00:23:40;100593.94;;;6.80;100.00
78990;BME280;68390;52.130;21.218;2024-03-22T00:26:05;100587.63;;;6.80;100.00
78990;BME280;68390;52.130;21.218;2024-03-22T00:28:30;100587.63;;;6.80;100.00
78990;BME280;68390;52.130;21.218;2024-03-22T00:30:56;100585.03;;;6.78;100.00
78990;BME280;68390;52.130;21.218;2024-03-22T00:33:21;100589.63;;;6.78;100.00
78990;BME280;68390;52.130;21.218;2024-03-22T00:35:47;100582.16;;;6.80;100.00
78990;BME280;68390;52.130;21.218;2024-03-22T00:38:12;100582.16;;;6.80;100.00
78990;BME280;68390;52.130;21.218;2024-03-22T00:40:38;100576.69;;;6.80;100.00
78990;BME280;68390;52.130;21.218;2024-03-22T00:43:03;100573.25;;;6.78;100.00
78990;BME280;68390;52.130;21.218;2024-03-22T00:45:28;100579.28;;;6.81;100.00
78990;BME280;68390;52.130;21.218;2024-03-22T00:47:54;100571.81;;;6.83;100.00
78990;BME280;68390;52.130;21.218;2024-03-22T00:50:19;100561.78;;;6.84;100.00
78990;BME280;68390;52.130;21.218;2024-03-22T00:52:45;100576.44;;;6.83;100.00
78990;BME280;68390;52.130;21.218;2024-03-22T00:55:10;100573.69;;;6.83;100.00
78990;BME280;68390;52.130;21.218;2024-03-22T00:57:36;100568.25;;;6.83;100.00
78990;BME280;68390;52.130;21.218;2024-03-22T01:00:01;100574.56;;;6.83;100.00
78990;BME280;68390;52.130;21.218;2024-03-22T01:02:26;100580.72;;;6.85;100.00
78990;BME280;68390;52.130;21.218;2024-03-22T01:04:52;100567.50;;;6.81;100.00
78990;BME280;68390;52.130;21.218;2024-03-22T01:07:17;100581.56;;;6.86;100.00
78990;BME280;68390;52.130;21.218;2024-03-22T01:09:43;100571.97;;;6.82;100.00
78990;BME280;68390;52.130;21.218;2024-03-22T01:12:10;100578.84;;;6.86;100.00
78990;BME280;68390;52.130;21.218;2024-03-22T01:14:35;100581.56;;;6.86;100.00
78990;BME280;68390;52.130;21.218;2024-03-22T01:17:00;100567.94;;;6.86;100.00
78990;BME280;68390;52.130;21.218;2024-03-22T01:19:26;100564.50;;;6.84;100.00
78990;BME280;68390;52.130;21.218;2024-03-22T01:21:51;100574.13;;;6.88;100.00
78990;BME280;68390;52.130;21.218;2024-03-22T01:24:17;100568.66;;;6.88;100.00
78990;BME280;68390;52.130;21.218;2024-03-22T01:26:42;100565.66;;;6.91;100.00
78990;BME280;68390;52.130;21.218;2024-03-22T01:29:07;100563.66;;;6.93;100.00
78990;BME280;68390;52.130;21.218;2024-03-22T01:31:33;100564.38;;;6.95;100.00
78990;BME280;68390;52.130;21.218;2024-03-22T01:33:58;100550.28;;;6.90;100.00
78990;BME280;68390;52.130;21.218;2024-03-22T01:36:24;100557.47;;;6.91;100.00
78990;BME280;68390;52.130;21.218;2024-03-22T01:38:49;100543.81;;;6.91;100.00
78990;BME280;68390;52.130;21.218;2024-03-22T01:41:14;100537.22;;;6.84;100.00
78990;BME280;68390;52.130;21.218;2024-03-22T01:43:40;100548.28;;;6.92;100.00
78990;BME280;68390;52.130;21.218;2024-03-22T01:46:07;100558.91;;;6.95;100.00
78990;BME280;68390;52.130;21.218;2024-03-22T01:48:33;100552.72;;;6.93;100.00
78990;BME280;68390;52.130;21.218;2024-03-22T01:51:00;100558.59;;;6.98;100.00
78990;BME280;68390;52.130;21.218;2024-03-22T01:53:26;100553.44;;;6.95;100.00
78990;BME280;68390;52.130;21.218;2024-03-22T01:55:51;100546.81;;;6.97;100.00
78990;BME280;68390;52.130;21.218;2024-03-22T01:58:18;100553.72;;;7.02;100.00
78990;BME280;68390;52.130;21.218;2024-03-22T02:00:43;100543.66;;;6.92;100.00
78990;BME280;68390;52.130;21.218;2024-03-22T02:03:09;100547.41;;;7.01;100.00
78990;BME280;68390;52.130;21.218;2024-03-22T02:05:35;100554.59;;;7.02;100.00
78990;BME280;68390;52.130;21.218;2024-03-22T02:08:00;100531.59;;;6.95;100.00
78990;BME280;68390;52.130;21.218;2024-03-22T02:10:25;100550.13;;;7.01;100.00
78990;BME280;68390;52.130;21.218;2024-03-22T02:12:51;100550.00;;;7.03;100.00
78990;BME280;68390;52.130;21.218;2024-03-22T02:15:16;100548.41;;;7.00;100.00
78990;BME280;68390;52.130;21.218;2024-03-22T02:17:42;100542.94;;;7.00;100.00
78990;BME280;68390;52.130;21.218;2024-03-22T02:20:08;100545.66;;;7.00;100.00
78990;BME280;68390;52.130;21.218;2024-03-22T02:22:33;100538.22;;;7.02;100.00
78990;BME280;68390;52.130;21.218;2024-03-22T02:24:59;100544.25;;;7.06;100.00
78990;BME280;68390;52.130;21.218;2024-03-22T02:27:27;100540.66;;;7.05;100.00
78990;BME280;68390;52.130;21.218;2024-03-22T02:29:53;100541.66;;;7.04;100.00
78990;BME280;68390;52.130;21.218;2024-03-22T02:32:18;100533.03;;;6.99;100.00
78990;BME280;68390;52.130;21.218;2024-03-22T02:34:43;100542.81;;;7.02;100.00
78990;BME280;68390;52.130;21.218;2024-03-22T02:37:09;100540.94;;;7.02;100.00
78990;BME280;68390;52.130;21.218;2024-03-22T02:39:34;100535.34;;;7.04;100.00
78990;BME280;68390;52.130;21.218;2024-03-22T02:41:59;100529.28;;;7.00;100.00
78990;BME280;68390;52.130;21.218;2024-03-22T02:44:25;100538.78;;;7.06;100.00
78990;BME280;68390;52.130;21.218;2024-03-22T02:46:50;100536.88;;;7.06;100.00
78990;BME280;68390;52.130;21.218;2024-03-22T02:49:16;100546.13;;;7.05;100.00
78990;BME280;68390;52.130;21.218;2024-03-22T02:51:41;100544.81;;;7.09;100.00
78990;BME280;68390;52.130;21.218;2024-03-22T02:54:07;100537.63;;;7.08;100.00
78990;BME280;68390;52.130;21.218;2024-03-22T02:56:32;100541.34;;;7.07;100.00
78990;BME280;68390;52.130;21.218;2024-03-22T02:58:57;100534.16;;;7.06;100.00
78990;BME280;68390;52.130;21.218;2024-03-22T03:01:23;100537.63;;;7.08;100.00
78990;BME280;68390;52.130;21.218;2024-03-22T03:03:48;100518.81;;;7.05;100.00
78990;BME280;68390;52.130;21.218;2024-03-22T03:06:14;100531.00;;;7.11;100.00
78990;BME280;68390;52.130;21.218;2024-03-22T03:08:40;100537.19;;;7.13;100.00
78990;BME280;68390;52.130;21.218;2024-03-22T03:11:05;100525.81;;;7.08;100.00
78990;BME280;68390;52.130;21.218;2024-03-22T03:13:31;100526.56;;;7.10;100.00
78990;BME280;68390;52.130;21.218;2024-03-22T03:15:57;100530.59;;;7.15;100.00
78990;BME280;68390;52.130;21.218;2024-03-22T03:18:23;100532.31;;;7.16;100.00
78990;BME280;68390;52.130;21.218;2024-03-22T03:20:48;100521.53;;;7.15;100.00
78990;BME280;68390;52.130;21.218;2024-03-22T03:23:14;100525.13;;;7.15;100.00
78990;BME280;68390;52.130;21.218;2024-03-22T03:25:39;100518.22;;;7.11;100.00
78990;BME280;68390;52.130;21.218;2024-03-22T03:28:05;100520.22;;;7.19;100.00
78990;BME280;68390;52.130;21.218;2024-03-22T03:30:33;100528.28;;;7.20;100.00
78990;BME280;68390;52.130;21.218;2024-03-22T03:32:58;100533.59;;;7.22;100.00
78990;BME280;68390;52.130;21.218;2024-03-22T03:35:24;100524.53;;;7.21;100.00
78990;BME280;68390;52.130;21.218;2024-03-22T03:37:50;100526.97;;;7.24;100.00
78990;BME280;68390;52.130;21.218;2024-03-22T03:40:18;100526.66;;;7.27;100.00
78990;BME280;68390;52.130;21.218;2024-03-22T03:42:44;100529.41;;;7.27;100.00
78990;BME280;68390;52.130;21.218;2024-03-22T03:45:09;100519.19;;;7.29;100.00
78990;BME280;68390;52.130;21.218;2024-03-22T03:47:34;100526.97;;;7.34;100.00
78990;BME280;68390;52.130;21.218;2024-03-22T03:50:00;100510.00;;;7.30;100.00
78990;BME280;68390;52.130;21.218;2024-03-22T03:52:25;100518.63;;;7.35;100.00
78990;BME280;68390;52.130;21.218;2024-03-22T03:54:51;100520.03;;;7.40;100.00
78990;BME280;68390;52.130;21.218;2024-03-22T03:57:16;100514.56;;;7.40;100.00
78990;BME280;68390;52.130;21.218;2024-03-22T03:59:41;100521.75;;;7.41;100.00
78990;BME280;68390;52.130;21.218;2024-03-22T04:02:07;100522.03;;;7.37;100.00
78990;BME280;68390;52.130;21.218;2024-03-22T04:04:32;100525.50;;;7.40;100.00
78990;BME280;68390;52.130;21.218;2024-03-22T04:06:58;100522.03;;;7.37;100.00
78990;BME280;68390;52.130;21.218;2024-03-22T04:09:23;100522.03;;;7.37;100.00
78990;BME280;68390;52.130;21.218;2024-03-22T04:11:49;100536.13;;;7.43;100.00
78990;BME280;68390;52.130;21.218;2024-03-22T04:14:14;100535.84;;;7.46;100.00
78990;BME280;68390;52.130;21.218;2024-03-22T04:16:39;100545.06;;;7.45;100.00
78990;BME280;68390;52.130;21.218;2024-03-22T04:19:05;100546.63;;;7.37;100.00
78990;BME280;68390;52.130;21.218;2024-03-22T04:21:30;100557.56;;;7.37;100.00
78990;BME280;68390;52.130;21.218;2024-03-22T04:23:56;100569.81;;;7.33;100.00
78990;BME280;68390;52.130;21.218;2024-03-22T04:26:21;100563.75;;;7.30;100.00
78990;BME280;68390;52.130;21.218;2024-03-22T04:28:46;100552.13;;;7.28;100.00
78990;BME280;68390;52.130;21.218;2024-03-22T04:31:12;100565.34;;;7.23;100.00
78990;BME280;68390;52.130;21.218;2024-03-22T04:33:38;100568.38;;;7.20;100.00
78990;BME280;68390;52.130;21.218;2024-03-22T04:36:04;100565.66;;;7.10;100.00
78990;BME280;68390;52.130;21.218;2024-03-22T04:38:30;100571.56;;;7.06;100.00
78990;BME280;68390;52.130;21.218;2024-03-22T04:40:56;100563.66;;;7.03;100.00
78990;BME280;68390;52.130;21.218;2024-03-22T04:43:25;100571.25;;;6.99;100.00
78990;BME280;68390;52.130;21.218;2024-03-22T04:45:51;100582.63;;;6.94;100.00
78990;BME280;68390;52.130;21.218;2024-03-22T04:48:18;100578.28;;;6.92;100.00
78990;BME280;68390;52.130;21.218;2024-03-22T04:50:51;100578.72;;;6.87;100.00
78990;BME280;68390;52.130;21.218;2024-03-22T04:53:18;100583.44;;;6.85;100.00
78990;BME280;68390;52.130;21.218;2024-03-22T04:55:44;100578.16;;;6.84;100.00
78990;BME280;68390;52.130;21.218;2024-03-22T04:58:20;100590.78;;;6.85;100.00
78990;BME280;68390;52.130;21.218;2024-03-22T05:00:47;100600.00;;;6.84;100.00
78990;BME280;68390;52.130;21.218;2024-03-22T05:03:13;100600.53;;;6.78;100.00
78990;BME280;68390;52.130;21.218;2024-03-22T05:05:41;100593.94;;;6.80;100.00
78990;BME280;68390;52.130;21.218;2024-03-22T05:08:07;100598.53;;;6.80;100.00
78990;BME280;68390;52.130;21.218;2024-03-22T05:10:33;100584.16;;;6.78;100.00
78990;BME280;68390;52.130;21.218;2024-03-22T05:12:59;100595.81;;;6.80;100.00
78990;BME280;68390;52.130;21.218;2024-03-22T05:15:25;100597.38;;;6.73;100.00
78990;BME280;68390;52.130;21.218;2024-03-22T05:17:56;100595.66;;;6.72;100.00
78990;BME280;68390;52.130;21.218;2024-03-22T05:20:21;100592.94;;;6.72;100.00
78990;BME280;68390;52.130;21.218;2024-03-22T05:22:47;100591.19;;;6.71;100.00
78990;BME280;68390;52.130;21.218;2024-03-22T05:25:13;100597.66;;;6.70;100.00
78990;BME280;68390;52.130;21.218;2024-03-22T05:27:41;100599.66;;;6.68;100.00
78990;BME280;68390;52.130;21.218;2024-03-22T05:30:08;100596.94;;;6.68;100.00
78990;BME280;68390;52.130;21.218;2024-03-22T05:32:33;100600.53;;;6.68;100.00
78990;BME280;68390;52.130;21.218;2024-03-22T05:34:59;100590.59;;;6.67;100.00
78990;BME280;68390;52.130;21.218;2024-03-22T05:37:24;100595.19;;;6.67;100.00
78990;BME280;68390;52.130;21.218;2024-03-22T05:39:49;100599.53;;;6.69;100.00
78990;BME280;68390;52.130;21.218;2024-03-22T05:42:15;100601.38;;;6.69;100.00
78990;BME280;68390;52.130;21.218;2024-03-22T05:44:40;100605.44;;;6.74;100.00
78990;BME280;68390;52.130;21.218;2024-03-22T05:47:06;100596.66;;;6.71;100.00
78990;BME280;68390;52.130;21.218;2024-03-22T05:49:31;100599.25;;;6.72;100.00
78990;BME280;68390;52.130;21.218;2024-03-22T05:51:56;100597.94;;;6.76;100.00
78990;BME280;68390;52.130;21.218;2024-03-22T05:54:22;100593.34;;;6.77;100.00
78990;BME280;68390;52.130;21.218;2024-03-22T05:56:47;100591.63;;;6.76;100.00
78990;BME280;68390;52.130;21.218;2024-03-22T05:59:13;100597.69;;;6.89;100.00
78990;BME280;68390;52.130;21.218;2024-03-22T06:01:38;100594.94;;;6.89;100.00
78990;BME280;68390;52.130;21.218;2024-03-22T06:04:04;100603.13;;;6.89;100.00
78990;BME280;68390;52.130;21.218;2024-03-22T06:06:33;100600.53;;;6.87;100.00
78990;BME280;68390;52.130;21.218;2024-03-22T06:08:59;100586.47;;;6.82;100.00
78990;BME280;68390;52.130;21.218;2024-03-22T06:11:27;100587.03;;;6.86;100.00
78990;BME280;68390;52.130;21.218;2024-03-22T06:13:53;100590.63;;;6.86;100.00
78990;BME280;68390;52.130;21.218;2024-03-22T06:16:18;100588.50;;;6.90;100.00
78990;BME280;68390;52.130;21.218;2024-03-22T06:18:45;100593.81;;;6.91;100.00
78990;BME280;68390;52.130;21.218;2024-03-22T06:21:10;100588.50;;;6.90;100.00
78990;BME280;68390;52.130;21.218;2024-03-22T06:23:36;100577.84;;;6.87;100.00
78990;BME280;68390;52.130;21.218;2024-03-22T06:26:01;100595.09;;;6.97;100.00
78990;BME280;68390;52.130;21.218;2024-03-22T06:28:28;100590.81;;;6.94;100.00
78990;BME280;68390;52.130;21.218;2024-03-22T06:30:53;100587.91;;;6.96;100.00
78990;BME280;68390;52.130;21.218;2024-03-22T06:33:19;100587.06;;;7.05;100.00
78990;BME280;68390;52.130;21.218;2024-03-22T06:35:45;100587.63;;;7.09;100.00
78990;BME280;68390;52.130;21.218;2024-03-22T06:38:11;100577.84;;;7.06;100.00
78990;BME280;68390;52.130;21.218;2024-03-22T06:40:37;100593.22;;;7.17;100.00
78990;BME280;68390;52.130;21.218;2024-03-22T06:43:02;100586.47;;;7.21;100.00
78990;BME280;68390;52.130;21.218;2024-03-22T06:45:28;100589.66;;;7.26;100.00
78990;BME280;68390;52.130;21.218;2024-03-22T06:47:54;100599.41;;;7.28;100.00
78990;BME280;68390;52.130;21.218;2024-03-22T06:50:20;100603.59;;;7.32;100.00
78990;BME280;68390;52.130;21.218;2024-03-22T06:52:50;100593.09;;;7.28;100.00
78990;BME280;68390;52.130;21.218;2024-03-22T06:55:16;100593.94;;;7.28;100.00
78990;BME280;68390;52.130;21.218;2024-03-22T06:57:42;100594.66;;;7.30;100.00
78990;BME280;68390;52.130;21.218;2024-03-22T07:00:11;100596.25;;;7.33;100.00
78990;BME280;68390;52.130;21.218;2024-03-22T07:02:36;100589.94;;;7.32;100.00
78990;BME280;68390;52.130;21.218;2024-03-22T07:05:02;100596.13;;;7.34;100.00
78990;BME280;68390;52.130;21.218;2024-03-22T07:07:29;100598.84;;;7.34;100.00
78990;BME280;68390;52.130;21.218;2024-03-22T07:09:54;100589.94;;;7.32;100.00
78990;BME280;68390;52.130;21.218;2024-03-22T07:12:20;100595.66;;;7.39;100.00
78990;BME280;68390;52.130;21.218;2024-03-22T07:14:45;100595.25;;;7.44;100.00
78990;BME280;68390;52.130;21.218;2024-03-22T07:17:10;100600.56;;;7.45;100.00
78990;BME280;68390;52.130;21.218;2024-03-22T07:19:36;100590.91;;;7.41;100.00
78990;BME280;68390;52.130;21.218;2024-03-22T07:22:02;100602.97;;;7.48;100.00
78990;BME280;68390;52.130;21.218;2024-03-22T07:24:27;100591.19;;;7.48;100.00
78990;BME280;68390;52.130;21.218;2024-03-22T07:26:53;100584.72;;;7.49;100.00
78990;BME280;68390;52.130;21.218;2024-03-22T07:29:18;100585.72;;;7.48;100.00
78990;BME280;68390;52.130;21.218;2024-03-22T07:31:44;100593.06;;;7.57;100.00
78990;BME280;68390;52.130;21.218;2024-03-22T07:34:10;100577.69;;;7.56;100.00
78990;BME280;68390;52.130;21.218;2024-03-22T07:36:39;100584.28;;;7.63;100.00
78990;BME280;68390;52.130;21.218;2024-03-22T07:39:04;100583.28;;;7.64;100.00
78990;BME280;68390;52.130;21.218;2024-03-22T07:41:32;100585.88;;;7.65;100.00
78990;BME280;68390;52.130;21.218;2024-03-22T07:43:58;100589.03;;;7.61;100.00
78990;BME280;68390;52.130;21.218;2024-03-22T07:46:25;100590.75;;;7.62;100.00
78990;BME280;68390;52.130;21.218;2024-03-22T07:48:51;100591.22;;;7.57;100.00
78990;BME280;68390;52.130;21.218;2024-03-22T07:51:17;100589.75;;;7.63;100.00
78990;BME280;68390;52.130;21.218;2024-03-22T07:53:43;100581.81;;;7.60;100.00
78990;BME280;68390;52.130;21.218;2024-03-22T07:56:08;100595.63;;;7.58;100.00
78990;BME280;68390;52.130;21.218;2024-03-22T07:58:34;100581.44;;;7.55;100.00
78990;BME280;68390;52.130;21.218;2024-03-22T08:00:59;100591.06;;;7.49;100.00
78990;BME280;68390;52.130;21.218;2024-03-22T08:03:24;100591.91;;;7.50;100.00
78990;BME280;68390;52.130;21.218;2024-03-22T08:05:50;100593.63;;;7.51;100.00
78990;BME280;68390;52.130;21.218;2024-03-22T08:08:15;100586.44;;;7.50;100.00
78990;BME280;68390;52.130;21.218;2024-03-22T08:10:41;100584.59;;;7.50;100.00
78990;BME280;68390;52.130;21.218;2024-03-22T08:13:06;100569.34;;;7.48;100.00
78990;BME280;68390;52.130;21.218;2024-03-22T08:15:31;100562.88;;;7.49;100.00
78990;BME280;68390;52.130;21.218;2024-03-22T08:17:57;100564.31;;;7.53;100.00
78990;BME280;68390;52.130;21.218;2024-03-22T08:20:23;100572.63;;;7.61;100.00
78990;BME280;68390;52.130;21.218;2024-03-22T08:22:48;100569.75;;;7.62;100.00
78990;BME280;68390;52.130;21.218;2024-03-22T08:25:14;100568.16;;;7.60;100.00
78990;BME280;68390;52.130;21.218;2024-03-22T08:27:43;100575.78;;;7.66;100.00
78990;BME280;68390;52.130;21.218;2024-03-22T08:30:10;100571.88;;;7.68;100.00
78990;BME280;68390;52.130;21.218;2024-03-22T08:32:35;100576.34;;;7.69;100.00
78990;BME280;68390;52.130;21.218;2024-03-22T08:35:01;100577.63;;;7.75;100.00
78990;BME280;68390;52.130;21.218;2024-03-22T08:37:26;100574.63;;;7.78;100.00
78990;BME280;68390;52.130;21.218;2024-03-22T08:39:51;100574.75;;;7.77;100.00
78990;BME280;68390;52.130;21.218;2024-03-22T08:42:17;100572.16;;;7.75;100.00
78990;BME280;68390;52.130;21.218;2024-03-22T08:44:42;100567.00;;;7.72;100.00
78990;BME280;68390;52.130;21.218;2024-03-22T08:47:08;100577.91;;;7.72;100.00
78990;BME280;68390;52.130;21.218;2024-03-22T08:49:34;100570.88;;;7.69;100.00
78990;BME280;68390;52.130;21.218;2024-03-22T08:52:01;100572.88;;;7.77;100.00
78990;BME280;68390;52.130;21.218;2024-03-22T08:54:27;100571.41;;;7.83;100.00
78990;BME280;68390;52.130;21.218;2024-03-22T08:56:52;100574.25;;;7.91;100.00
78990;BME280;68390;52.130;21.218;2024-03-22T08:59:18;100569.94;;;7.98;100.00
78990;BME280;68390;52.130;21.218;2024-03-22T09:01:44;100577.09;;;8.08;100.00
78990;BME280;68390;52.130;21.218;2024-03-22T09:04:09;100565.69;;;8.13;100.00
78990;BME280;68390;52.130;21.218;2024-03-22T09:06:34;100569.53;;;8.20;100.00
78990;BME280;68390;52.130;21.218;2024-03-22T09:09:00;100570.81;;;8.26;100.00
78990;BME280;68390;52.130;21.218;2024-03-22T09:11:25;100570.94;;;8.34;100.00
78990;BME280;68390;52.130;21.218;2024-03-22T09:13:52;100564.31;;;8.36;100.00
78990;BME280;68390;52.130;21.218;2024-03-22T09:16:18;100559.41;;;8.40;100.00
78990;BME280;68390;52.130;21.218;2024-03-22T09:18:43;100563.50;;;8.54;100.00
78990;BME280;68390;52.130;21.218;2024-03-22T09:21:08;100571.78;;;8.62;100.00
78990;BME280;68390;52.130;21.218;2024-03-22T09:23:36;100563.53;;;8.71;100.00
78990;BME280;68390;52.130;21.218;2024-03-22T09:26:01;100566.97;;;8.73;100.00
78990;BME280;68390;52.130;21.218;2024-03-22T09:28:26;100570.72;;;8.72;100.00
78990;BME280;68390;52.130;21.218;2024-03-22T09:30:52;100557.09;;;8.63;100.00
78990;BME280;68390;52.130;21.218;2024-03-22T09:33:17;100561.56;;;8.64;100.00
78990;BME280;68390;52.130;21.218;2024-03-22T09:35:43;100568.91;;;8.63;100.00
78990;BME280;68390;52.130;21.218;2024-03-22T09:38:08;100571.03;;;8.69;100.00
78990;BME280;68390;52.130;21.218;2024-03-22T09:40:37;100555.78;;;8.67;100.00
78990;BME280;68390;52.130;21.218;2024-03-22T09:43:06;100561.25;;;8.67;100.00
78990;BME280;68390;52.130;21.218;2024-03-22T09:45:32;100556.94;;;8.64;100.00
78990;BME280;68390;52.130;21.218;2024-03-22T09:47:58;100557.94;;;8.63;100.00
78990;BME280;68390;52.130;21.218;2024-03-22T09:50:23;100545.69;;;8.67;100.00
78990;BME280;68390;52.130;21.218;2024-03-22T09:52:51;100553.28;;;8.73;100.00
78990;BME280;68390;52.130;21.218;2024-03-22T09:55:26;100552.44;;;8.91;100.00
78990;BME280;68390;52.130;21.218;2024-03-22T09:57:52;100548.75;;;9.00;100.00
78990;BME280;68390;52.130;21.218;2024-03-22T10:00:20;100548.47;;;9.03;100.00
78990;BME280;68390;52.130;21.218;2024-03-22T10:02:48;100545.72;;;9.03;100.00
78990;BME280;68390;52.130;21.218;2024-03-22T10:05:14;100547.19;;;8.97;100.00
78990;BME280;68390;52.130;21.218;2024-03-22T10:07:40;100547.97;;;8.90;100.00
78990;BME280;68390;52.130;21.218;2024-03-22T10:10:07;100542.97;;;8.85;100.00
78990;BME280;68390;52.130;21.218;2024-03-22T10:12:33;100540.84;;;8.79;100.00
78990;BME280;68390;52.130;21.218;2024-03-22T10:14:58;100536.31;;;8.70;100.00
78990;BME280;68390;52.130;21.218;2024-03-22T10:17:26;100526.38;;;8.69;100.00
78990;BME280;68390;52.130;21.218;2024-03-22T10:19:51;100532.38;;;8.72;100.00
78990;BME280;68390;52.130;21.218;2024-03-22T10:22:18;100542.00;;;8.76;100.00
78990;BME280;68390;52.130;21.218;2024-03-22T10:24:44;100521.13;;;8.75;100.00
78990;BME280;68390;52.130;21.218;2024-03-22T10:27:09;100523.88;;;8.75;100.00
78990;BME280;68390;52.130;21.218;2024-03-22T10:29:38;100521.13;;;8.75;100.00
78990;BME280;68390;52.130;21.218;2024-03-22T10:32:04;100506.56;;;8.75;100.00
78990;BME280;68390;52.130;21.218;2024-03-22T10:34:31;100512.47;;;8.80;100.00
78990;BME280;68390;52.130;21.218;2024-03-22T10:36:59;100511.09;;;8.84;100.00
78990;BME280;68390;52.130;21.218;2024-03-22T10:39:26;100503.91;;;8.83;100.00
78990;BME280;68390;52.130;21.218;2024-03-22T10:41:51;100502.66;;;8.77;100.00
78990;BME280;68390;52.130;21.218;2024-03-22T10:44:17;100503.84;;;8.75;100.00
78990;BME280;68390;52.130;21.218;2024-03-22T10:46:46;100497.84;;;8.71;100.00
78990;BME280;68390;52.130;21.218;2024-03-22T10:49:19;100510.47;;;8.72;100.00
78990;BME280;68390;52.130;21.218;2024-03-22T10:51:51;100501.88;;;8.67;100.00
78990;BME280;68390;52.130;21.218;2024-03-22T10:54:20;100501.03;;;8.67;100.00
78990;BME280;68390;52.130;21.218;2024-03-22T10:56:47;100507.28;;;8.59;100.00
78990;BME280;68390;52.130;21.218;2024-03-22T10:59:23;100496.25;;;8.51;100.00
78990;BME280;68390;52.130;21.218;2024-03-22T11:01:49;100507.72;;;8.55;100.00
78990;BME280;68390;52.130;21.218;2024-03-22T11:04:20;100505.16;;;8.53;100.00
78990;BME280;68390;52.130;21.218;2024-03-22T11:06:49;100498.13;;;8.51;100.00
78990;BME280;68390;52.130;21.218;2024-03-22T11:09:21;100491.31;;;8.55;100.00
78990;BME280;68390;52.130;21.218;2024-03-22T11:11:48;100485.47;;;8.67;100.00
78990;BME280;68390;52.130;21.218;2024-03-22T11:14:14;100482.50;;;8.78;100.00
78990;BME280;68390;52.130;21.218;2024-03-22T11:16:43;100483.50;;;8.95;100.00
78990;BME280;68390;52.130;21.218;2024-03-22T11:19:09;100483.28;;;9.14;100.00
78990;BME280;68390;52.130;21.218;2024-03-22T11:21:34;100474.91;;;9.16;100.00
78990;BME280;68390;52.130;21.218;2024-03-22T11:24:01;100478.38;;;9.18;100.00
78990;BME280;68390;52.130;21.218;2024-03-22T11:26:26;100475.94;;;9.15;100.00
78990;BME280;68390;52.130;21.218;2024-03-22T11:28:52;100473.38;;;9.13;100.00
78990;BME280;68390;52.130;21.218;2024-03-22T11:31:18;100471.81;;;9.11;100.00
78990;BME280;68390;52.130;21.218;2024-03-22T11:33:47;100465.78;;;9.07;100.00
78990;BME280;68390;52.130;21.218;2024-03-22T11:36:13;100466.50;;;9.09;100.00
78990;BME280;68390;52.130;21.218;2024-03-22T11:38:39;100464.97;;;9.15;100.00
78990;BME280;68390;52.130;21.218;2024-03-22T11:41:04;100461.38;;;9.14;100.00
78990;BME280;68390;52.130;21.218;2024-03-22T11:43:31;100469.59;;;9.14;100.00
78990;BME280;68390;52.130;21.218;2024-03-22T11:45:57;100465.22;;;9.04;100.00
78990;BME280;68390;52.130;21.218;2024-03-22T11:48:23;100458.69;;;8.97;100.00
78990;BME280;68390;52.130;21.218;2024-03-22T11:50:49;100454.94;;;8.98;100.00
78990;BME280;68390;52.130;21.218;2024-03-22T11:53:16;100458.53;;;8.98;100.00
78990;BME280;68390;52.130;21.218;2024-03-22T11:55:42;100446.25;;;9.02;100.00
78990;BME280;68390;52.130;21.218;2024-03-22T11:58:09;100453.50;;;9.11;100.00
78990;BME280;68390;52.130;21.218;2024-03-22T12:00:35;100450.25;;;9.16;100.00
78990;BME280;68390;52.130;21.218;2024-03-22T12:03:04;100442.75;;;9.18;100.00
78990;BME280;68390;52.130;21.218;2024-03-22T12:05:29;100446.25;;;9.28;100.00
78990;BME280;68390;52.130;21.218;2024-03-22T12:07:55;100446.63;;;9.33;100.00
78990;BME280;68390;52.130;21.218;2024-03-22T12:10:21;100444.97;;;9.40;100.00
78990;BME280;68390;52.130;21.218;2024-03-22T12:12:46;100440.22;;;9.50;100.00
78990;BME280;68390;52.130;21.218;2024-03-22T12:15:12;100440.22;;;9.50;100.00
78990;BME280;68390;52.130;21.218;2024-03-22T12:17:37;100445.72;;;9.50;100.00
78990;BME280;68390;52.130;21.218;2024-03-22T12:20:08;100430.66;;;9.54;100.00
78990;BME280;68390;52.130;21.218;2024-03-22T12:22:34;100434.44;;;9.53;100.00
78990;BME280;68390;52.130;21.218;2024-03-22T12:24:59;100440.53;;;9.47;100.00
78990;BME280;68390;52.130;21.218;2024-03-22T12:27:25;100436.47;;;9.51;100.00
78990;BME280;68390;52.130;21.218;2024-03-22T12:29:50;100439.56;;;9.56;100.00
78990;BME280;68390;52.130;21.218;2024-03-22T12:32:16;100434.59;;;9.52;100.00
78990;BME280;68390;52.130;21.218;2024-03-22T12:34:41;100417.91;;;9.45;100.00